Aviation Digital Data Service (ADDS)

Output produced by METARs form (0246 UTC 25 January 2020)
found at http://www.aviationweather.gov/metar/data/
 
METAR text: ZHHH 250200Z 03004MPS 5000 BR SCT013 OVC040 04/03 Q1030 NOSIG
Conditions at: ZHHH (WUHAN/NANHU , CN) observed 0200 UTC 25 January 2020
Temperature: 4.0°C (39°F)
Dewpoint: 3.0°C (37°F) [RH = 93%]
Pressure (altimeter): 30.41 inches Hg (1030.0 mb)
Winds: from the NNE (30 degrees) at 9 MPH (8 knots; 4.1 m/s)
Visibility: 3 miles ( 5 km)
Ceiling: 4000 feet AGL
Clouds: scattered clouds at 1300 feet AGL
overcast cloud deck at 4000 feet AGL
Weather: BR  (mist)

METAR text: ZHHH 250100Z 02004MPS 350V050 3800 BR SCT011 OVC030 04/03 Q1029 NOSIG
Conditions at: ZHHH (WUHAN/NANHU , CN) observed 0100 UTC 25 January 2020
Temperature: 4.0°C (39°F)
Dewpoint: 3.0°C (37°F) [RH = 93%]
Pressure (altimeter): 30.38 inches Hg (1029.0 mb)
Winds: from the NNE (20 degrees) at 9 MPH (8 knots; 4.1 m/s)
Visibility: 2.36 miles (3.80 km)
Ceiling: 3000 feet AGL
Clouds: scattered clouds at 1100 feet AGL
overcast cloud deck at 3000 feet AGL
Weather: BR  (mist)

METAR text: ZHHH 250000Z 01003MPS 3500 -RA BR SCT011 OVC030 04/03 Q1030 NOSIG
Conditions at: ZHHH (WUHAN/NANHU , CN) observed 0000 UTC 25 January 2020
Temperature: 4.0°C (39°F)
Dewpoint: 3.0°C (37°F) [RH = 93%]
Pressure (altimeter): 30.41 inches Hg (1030.0 mb)
Winds: from the N (10 degrees) at 7 MPH (6 knots; 3.1 m/s)
Visibility: 2.17 miles (3.49 km)
Ceiling: 3000 feet AGL
Clouds: scattered clouds at 1100 feet AGL
overcast cloud deck at 3000 feet AGL
Weather: -RA BR  (light rain, mist)

METAR text: ZHHH 242300Z 01003MPS 340V040 5000 -RA BR SCT013 OVC030 04/03 Q1029 NOSIG
Conditions at: ZHHH (WUHAN/NANHU , CN) observed 2300 UTC 24 January 2020
Temperature: 4.0°C (39°F)
Dewpoint: 3.0°C (37°F) [RH = 93%]
Pressure (altimeter): 30.38 inches Hg (1029.0 mb)
Winds: from the N (10 degrees) at 7 MPH (6 knots; 3.1 m/s)
Visibility: 3 miles ( 5 km)
Ceiling: 3000 feet AGL
Clouds: scattered clouds at 1300 feet AGL
overcast cloud deck at 3000 feet AGL
Weather: -RA BR  (light rain, mist)

METAR text: ZHHH 242200Z 03004MPS 3500 -RA BR SCT010 OVC030 05/03 Q1027 NOSIG
Conditions at: ZHHH (WUHAN/NANHU , CN) observed 2200 UTC 24 January 2020
Temperature: 5.0°C (41°F)
Dewpoint: 3.0°C (37°F) [RH = 87%]
Pressure (altimeter): 30.32 inches Hg (1027.0 mb)
Winds: from the NNE (30 degrees) at 9 MPH (8 knots; 4.1 m/s)
Visibility: 2.17 miles (3.49 km)
Ceiling: 3000 feet AGL
Clouds: scattered clouds at 1000 feet AGL
overcast cloud deck at 3000 feet AGL
Weather: -RA BR  (light rain, mist)

METAR text: ZHHH 242100Z 02003MPS 340V040 2500 -RA BR SCT010 OVC030 05/04 Q1027 NOSIG
Conditions at: ZHHH (WUHAN/NANHU , CN) observed 2100 UTC 24 January 2020
Temperature: 5.0°C (41°F)
Dewpoint: 4.0°C (39°F) [RH = 93%]
Pressure (altimeter): 30.32 inches Hg (1027.0 mb)
Winds: from the NNE (20 degrees) at 7 MPH (6 knots; 3.1 m/s)
Visibility: 1.55 miles (2.49 km)
Ceiling: 3000 feet AGL
Clouds: scattered clouds at 1000 feet AGL
overcast cloud deck at 3000 feet AGL
Weather: -RA BR  (light rain, mist)

METAR text: ZHHH 242000Z 01003MPS 340V060 2500 -RA BR SCT010 OVC030 05/04 Q1028 NOSIG
Conditions at: ZHHH (WUHAN/NANHU , CN) observed 2000 UTC 24 January 2020
Temperature: 5.0°C (41°F)
Dewpoint: 4.0°C (39°F) [RH = 93%]
Pressure (altimeter): 30.35 inches Hg (1028.0 mb)
Winds: from the N (10 degrees) at 7 MPH (6 knots; 3.1 m/s)
Visibility: 1.55 miles (2.49 km)
Ceiling: 3000 feet AGL
Clouds: scattered clouds at 1000 feet AGL
overcast cloud deck at 3000 feet AGL
Weather: -RA BR  (light rain, mist)

METAR text: ZHHH 241900Z 02004MPS 2500 -RA BR SCT010 OVC030 05/04 Q1028 NOSIG
Conditions at: ZHHH (WUHAN/NANHU , CN) observed 1900 UTC 24 January 2020
Temperature: 5.0°C (41°F)
Dewpoint: 4.0°C (39°F) [RH = 93%]
Pressure (altimeter): 30.35 inches Hg (1028.0 mb)
Winds: from the NNE (20 degrees) at 9 MPH (8 knots; 4.1 m/s)
Visibility: 1.55 miles (2.49 km)
Ceiling: 3000 feet AGL
Clouds: scattered clouds at 1000 feet AGL
overcast cloud deck at 3000 feet AGL
Weather: -RA BR  (light rain, mist)

METAR text: ZHHH 241800Z 02004MPS 350V050 2500 -RA BR SCT006 OVC030 06/04 Q1028 NOSIG
Conditions at: ZHHH (WUHAN/NANHU , CN) observed 1800 UTC 24 January 2020
Temperature: 6.0°C (43°F)
Dewpoint: 4.0°C (39°F) [RH = 87%]
Pressure (altimeter): 30.35 inches Hg (1028.0 mb)
Winds: from the NNE (20 degrees) at 9 MPH (8 knots; 4.1 m/s)
Visibility: 1.55 miles (2.49 km)
Ceiling: 3000 feet AGL
Clouds: scattered clouds at 600 feet AGL
overcast cloud deck at 3000 feet AGL
Weather: -RA BR  (light rain, mist)

METAR text: ZHHH 241700Z 01003MPS 340V060 3000 -RA BR SCT006 OVC030 06/04 Q1029 NOSIG
Conditions at: ZHHH (WUHAN/NANHU , CN) observed 1700 UTC 24 January 2020
Temperature: 6.0°C (43°F)
Dewpoint: 4.0°C (39°F) [RH = 87%]
Pressure (altimeter): 30.38 inches Hg (1029.0 mb)
Winds: from the N (10 degrees) at 7 MPH (6 knots; 3.1 m/s)
Visibility: 1.86 miles (2.99 km)
Ceiling: 3000 feet AGL
Clouds: scattered clouds at 600 feet AGL
overcast cloud deck at 3000 feet AGL
Weather: -RA BR  (light rain, mist)

METAR text: ZHHH 241600Z 03004MPS 350V060 4000 -RA BR SCT006 OVC030 06/05 Q1028 NOSIG
Conditions at: ZHHH (WUHAN/NANHU , CN) observed 1600 UTC 24 January 2020
Temperature: 6.0°C (43°F)
Dewpoint: 5.0°C (41°F) [RH = 93%]
Pressure (altimeter): 30.35 inches Hg (1028.0 mb)
Winds: from the NNE (30 degrees) at 9 MPH (8 knots; 4.1 m/s)
Visibility: 2.49 miles (4.01 km)
Ceiling: 3000 feet AGL
Clouds: scattered clouds at 600 feet AGL
overcast cloud deck at 3000 feet AGL
Weather: -RA BR  (light rain, mist)

METAR text: ZHHH 241500Z 02004MPS 350V050 4000 -RA BR SCT006 OVC030 06/05 Q1029 NOSIG
Conditions at: ZHHH (WUHAN/NANHU , CN) observed 1500 UTC 24 January 2020
Temperature: 6.0°C (43°F)
Dewpoint: 5.0°C (41°F) [RH = 93%]
Pressure (altimeter): 30.38 inches Hg (1029.0 mb)
Winds: from the NNE (20 degrees) at 9 MPH (8 knots; 4.1 m/s)
Visibility: 2.49 miles (4.01 km)
Ceiling: 3000 feet AGL
Clouds: scattered clouds at 600 feet AGL
overcast cloud deck at 3000 feet AGL
Weather: -RA BR  (light rain, mist)

METAR text: ZHHH 241400Z 03003MPS 5000 -RA BR SCT006 OVC030 06/05 Q1030 NOSIG
Conditions at: ZHHH (WUHAN/NANHU , CN) observed 1400 UTC 24 January 2020
Temperature: 6.0°C (43°F)
Dewpoint: 5.0°C (41°F) [RH = 93%]
Pressure (altimeter): 30.41 inches Hg (1030.0 mb)
Winds: from the NNE (30 degrees) at 7 MPH (6 knots; 3.1 m/s)
Visibility: 3 miles ( 5 km)
Ceiling: 3000 feet AGL
Clouds: scattered clouds at 600 feet AGL
overcast cloud deck at 3000 feet AGL
Weather: -RA BR  (light rain, mist)

METAR text: ZHHH 241300Z 02003MPS 350V050 5000 -RA BR SCT006 OVC030 06/05 Q1029 NOSIG
Conditions at: ZHHH (WUHAN/NANHU , CN) observed 1300 UTC 24 January 2020
Temperature: 6.0°C (43°F)
Dewpoint: 5.0°C (41°F) [RH = 93%]
Pressure (altimeter): 30.38 inches Hg (1029.0 mb)
Winds: from the NNE (20 degrees) at 7 MPH (6 knots; 3.1 m/s)
Visibility: 3 miles ( 5 km)
Ceiling: 3000 feet AGL
Clouds: scattered clouds at 600 feet AGL
overcast cloud deck at 3000 feet AGL
Weather: -RA BR  (light rain, mist)

METAR text: ZHHH 241200Z 03004MPS 5000 -RA BR SCT006 OVC030 06/05 Q1028 NOSIG
Conditions at: ZHHH (WUHAN/NANHU , CN) observed 1200 UTC 24 January 2020
Temperature: 6.0°C (43°F)
Dewpoint: 5.0°C (41°F) [RH = 93%]
Pressure (altimeter): 30.35 inches Hg (1028.0 mb)
Winds: from the NNE (30 degrees) at 9 MPH (8 knots; 4.1 m/s)
Visibility: 3 miles ( 5 km)
Ceiling: 3000 feet AGL
Clouds: scattered clouds at 600 feet AGL
overcast cloud deck at 3000 feet AGL
Weather: -RA BR  (light rain, mist)

METAR text: ZHHH 241100Z 04005MPS 7000 -RA SCT006 OVC030 06/05 Q1028 NOSIG
Conditions at: ZHHH (WUHAN/NANHU , CN) observed 1100 UTC 24 January 2020
Temperature: 6.0°C (43°F)
Dewpoint: 5.0°C (41°F) [RH = 93%]
Pressure (altimeter): 30.35 inches Hg (1028.0 mb)
Winds: from the NE (40 degrees) at 12 MPH (10 knots; 5.1 m/s)
Visibility: 4 miles ( 7 km)
Ceiling: 3000 feet AGL
Clouds: scattered clouds at 600 feet AGL
overcast cloud deck at 3000 feet AGL
Weather: -RA  (light rain)

METAR text: ZHHH 241000Z 03004MPS 3000 -RA BR SCT006 OVC030 06/05 Q1027 NOSIG
Conditions at: ZHHH (WUHAN/NANHU , CN) observed 1000 UTC 24 January 2020
Temperature: 6.0°C (43°F)
Dewpoint: 5.0°C (41°F) [RH = 93%]
Pressure (altimeter): 30.32 inches Hg (1027.0 mb)
Winds: from the NNE (30 degrees) at 9 MPH (8 knots; 4.1 m/s)
Visibility: 1.86 miles (2.99 km)
Ceiling: 3000 feet AGL
Clouds: scattered clouds at 600 feet AGL
overcast cloud deck at 3000 feet AGL
Weather: -RA BR  (light rain, mist)

METAR text: ZHHH 240900Z 01003MPS 300V050 3000 -RA BR SCT006 OVC023 06/05 Q1027 NOSIG
Conditions at: ZHHH (WUHAN/NANHU , CN) observed 0900 UTC 24 January 2020
Temperature: 6.0°C (43°F)
Dewpoint: 5.0°C (41°F) [RH = 93%]
Pressure (altimeter): 30.32 inches Hg (1027.0 mb)
Winds: from the N (10 degrees) at 7 MPH (6 knots; 3.1 m/s)
Visibility: 1.86 miles (2.99 km)
Ceiling: 2300 feet AGL
Clouds: scattered clouds at 600 feet AGL
overcast cloud deck at 2300 feet AGL
Weather: -RA BR  (light rain, mist)

METAR text: ZHHH 240800Z 03004MPS 3000 -RA BR SCT006 OVC023 06/05 Q1027 NOSIG
Conditions at: ZHHH (WUHAN/NANHU , CN) observed 0800 UTC 24 January 2020
Temperature: 6.0°C (43°F)
Dewpoint: 5.0°C (41°F) [RH = 93%]
Pressure (altimeter): 30.32 inches Hg (1027.0 mb)
Winds: from the NNE (30 degrees) at 9 MPH (8 knots; 4.1 m/s)
Visibility: 1.86 miles (2.99 km)
Ceiling: 2300 feet AGL
Clouds: scattered clouds at 600 feet AGL
overcast cloud deck at 2300 feet AGL
Weather: -RA BR  (light rain, mist)

METAR text: ZHHH 240700Z 04005MPS 2000 -RA BR SCT006 OVC023 07/06 Q1026 BECMG TL0840 3000
Conditions at: ZHHH (WUHAN/NANHU , CN) observed 0700 UTC 24 January 2020
Temperature: 7.0°C (45°F)
Dewpoint: 6.0°C (43°F) [RH = 93%]
Pressure (altimeter): 30.30 inches Hg (1026.0 mb)
Winds: from the NE (40 degrees) at 12 MPH (10 knots; 5.1 m/s)
Visibility: 1.24 miles (2.00 km)
Ceiling: 2300 feet AGL
Clouds: scattered clouds at 600 feet AGL
overcast cloud deck at 2300 feet AGL
Weather: -RA BR  (light rain, mist)

METAR text: ZHHH 240600Z 03004MPS 350V060 4000 -RA BR SCT011 OVC023 07/05 Q1027 NOSIG
Conditions at: ZHHH (WUHAN/NANHU , CN) observed 0600 UTC 24 January 2020
Temperature: 7.0°C (45°F)
Dewpoint: 5.0°C (41°F) [RH = 87%]
Pressure (altimeter): 30.32 inches Hg (1027.0 mb)
Winds: from the NNE (30 degrees) at 9 MPH (8 knots; 4.1 m/s)
Visibility: 2.49 miles (4.01 km)
Ceiling: 2300 feet AGL
Clouds: scattered clouds at 1100 feet AGL
overcast cloud deck at 2300 feet AGL
Weather: -RA BR  (light rain, mist)

METAR text: ZHHH 240500Z 03003MPS 350V060 5000 -RA BR SCT015 07/06 Q1027 NOSIG
Conditions at: ZHHH (WUHAN/NANHU , CN) observed 0500 UTC 24 January 2020
Temperature: 7.0°C (45°F)
Dewpoint: 6.0°C (43°F) [RH = 93%]
Pressure (altimeter): 30.32 inches Hg (1027.0 mb)
Winds: from the NNE (30 degrees) at 7 MPH (6 knots; 3.1 m/s)
Visibility: 3 miles ( 5 km)
Ceiling: at least 12,000 feet AGL
Clouds: scattered clouds at 1500 feet AGL
Weather: -RA BR  (light rain, mist)

METAR text: ZHHH 240400Z 03003MPS 5000 -RA BR SCT015 07/06 Q1028 NOSIG
Conditions at: ZHHH (WUHAN/NANHU , CN) observed 0400 UTC 24 January 2020
Temperature: 7.0°C (45°F)
Dewpoint: 6.0°C (43°F) [RH = 93%]
Pressure (altimeter): 30.35 inches Hg (1028.0 mb)
Winds: from the NNE (30 degrees) at 7 MPH (6 knots; 3.1 m/s)
Visibility: 3 miles ( 5 km)
Ceiling: at least 12,000 feet AGL
Clouds: scattered clouds at 1500 feet AGL
Weather: -RA BR  (light rain, mist)

METAR text: ZHHH 240300Z 03004MPS 360V060 5000 -RA BR SCT015 07/05 Q1028 NOSIG
Conditions at: ZHHH (WUHAN/NANHU , CN) observed 0300 UTC 24 January 2020
Temperature: 7.0°C (45°F)
Dewpoint: 5.0°C (41°F) [RH = 87%]
Pressure (altimeter): 30.35 inches Hg (1028.0 mb)
Winds: from the NNE (30 degrees) at 9 MPH (8 knots; 4.1 m/s)
Visibility: 3 miles ( 5 km)
Ceiling: at least 12,000 feet AGL
Clouds: scattered clouds at 1500 feet AGL
Weather: -RA BR  (light rain, mist)

METAR text: ZHHH 240200Z 04005MPS 360V060 6000 SCT025 08/05 Q1028 NOSIG
Conditions at: ZHHH (WUHAN/NANHU , CN) observed 0200 UTC 24 January 2020
Temperature: 8.0°C (46°F)
Dewpoint: 5.0°C (41°F) [RH = 81%]
Pressure (altimeter): 30.35 inches Hg (1028.0 mb)
Winds: from the NE (40 degrees) at 12 MPH (10 knots; 5.1 m/s)
Visibility: 4 miles ( 6 km)
Ceiling: at least 12,000 feet AGL
Clouds: scattered clouds at 2500 feet AGL
Weather: no significant weather observed at this time

METAR text: ZHHH 240100Z 03004MPS 360V060 6000 SCT030 07/05 Q1028 NOSIG
Conditions at: ZHHH (WUHAN/NANHU , CN) observed 0100 UTC 24 January 2020
Temperature: 7.0°C (45°F)
Dewpoint: 5.0°C (41°F) [RH = 87%]
Pressure (altimeter): 30.35 inches Hg (1028.0 mb)
Winds: from the NNE (30 degrees) at 9 MPH (8 knots; 4.1 m/s)
Visibility: 4 miles ( 6 km)
Ceiling: at least 12,000 feet AGL
Clouds: scattered clouds at 3000 feet AGL
Weather: no significant weather observed at this time

METAR text: ZHHH 240000Z 03003MPS 360V070 6000 OVC030 07/05 Q1027 NOSIG
Conditions at: ZHHH (WUHAN/NANHU , CN) observed 0000 UTC 24 January 2020
Temperature: 7.0°C (45°F)
Dewpoint: 5.0°C (41°F) [RH = 87%]
Pressure (altimeter): 30.32 inches Hg (1027.0 mb)
Winds: from the NNE (30 degrees) at 7 MPH (6 knots; 3.1 m/s)
Visibility: 4 miles ( 6 km)
Ceiling: 3000 feet AGL
Clouds: overcast cloud deck at 3000 feet AGL
Weather: no significant weather observed at this time

METAR text: ZHHH 232300Z 03003MPS 360V060 8000 OVC030 07/05 Q1027 NOSIG
Conditions at: ZHHH (WUHAN/NANHU , CN) observed 2300 UTC 23 January 2020
Temperature: 7.0°C (45°F)
Dewpoint: 5.0°C (41°F) [RH = 87%]
Pressure (altimeter): 30.32 inches Hg (1027.0 mb)
Winds: from the NNE (30 degrees) at 7 MPH (6 knots; 3.1 m/s)
Visibility: 5 miles ( 8 km)
Ceiling: 3000 feet AGL
Clouds: overcast cloud deck at 3000 feet AGL
Weather: no significant weather observed at this time

METAR text: ZHHH 232200Z 04004MPS 360V060 8000 OVC040 07/05 Q1026 NOSIG
Conditions at: ZHHH (WUHAN/NANHU , CN) observed 2200 UTC 23 January 2020
Temperature: 7.0°C (45°F)
Dewpoint: 5.0°C (41°F) [RH = 87%]
Pressure (altimeter): 30.30 inches Hg (1026.0 mb)
Winds: from the NE (40 degrees) at 9 MPH (8 knots; 4.1 m/s)
Visibility: 5 miles ( 8 km)
Ceiling: 4000 feet AGL
Clouds: overcast cloud deck at 4000 feet AGL
Weather: no significant weather observed at this time

METAR text: ZHHH 232100Z 04005MPS 010V070 8000 OVC040 07/05 Q1025 NOSIG
Conditions at: ZHHH (WUHAN/NANHU , CN) observed 2100 UTC 23 January 2020
Temperature: 7.0°C (45°F)
Dewpoint: 5.0°C (41°F) [RH = 87%]
Pressure (altimeter): 30.27 inches Hg (1025.0 mb)
Winds: from the NE (40 degrees) at 12 MPH (10 knots; 5.1 m/s)
Visibility: 5 miles ( 8 km)
Ceiling: 4000 feet AGL
Clouds: overcast cloud deck at 4000 feet AGL
Weather: no significant weather observed at this time

METAR text: ZHHH 232000Z 04005MPS 360V060 5000 BR OVC040 07/05 Q1025 NOSIG
Conditions at: ZHHH (WUHAN/NANHU , CN) observed 2000 UTC 23 January 2020
Temperature: 7.0°C (45°F)
Dewpoint: 5.0°C (41°F) [RH = 87%]
Pressure (altimeter): 30.27 inches Hg (1025.0 mb)
Winds: from the NE (40 degrees) at 12 MPH (10 knots; 5.1 m/s)
Visibility: 3 miles ( 5 km)
Ceiling: 4000 feet AGL
Clouds: overcast cloud deck at 4000 feet AGL
Weather: BR  (mist)

METAR text: ZHHH 231900Z 03004MPS 5000 BR SCT026 OVC040 07/06 Q1025 NOSIG
Conditions at: ZHHH (WUHAN/NANHU , CN) observed 1900 UTC 23 January 2020
Temperature: 7.0°C (45°F)
Dewpoint: 6.0°C (43°F) [RH = 93%]
Pressure (altimeter): 30.27 inches Hg (1025.0 mb)
Winds: from the NNE (30 degrees) at 9 MPH (8 knots; 4.1 m/s)
Visibility: 3 miles ( 5 km)
Ceiling: 4000 feet AGL
Clouds: scattered clouds at 2600 feet AGL
overcast cloud deck at 4000 feet AGL
Weather: BR  (mist)

METAR text: ZHHH 231800Z 02003MPS 360V060 3000 BR SCT020 OVC033 07/07 Q1025 NOSIG
Conditions at: ZHHH (WUHAN/NANHU , CN) observed 1800 UTC 23 January 2020
Temperature: 7.0°C (45°F)
Dewpoint: 7.0°C (45°F) [RH = 100%]
Pressure (altimeter): 30.27 inches Hg (1025.0 mb)
Winds: from the NNE (20 degrees) at 7 MPH (6 knots; 3.1 m/s)
Visibility: 1.86 miles (2.99 km)
Ceiling: 3300 feet AGL
Clouds: scattered clouds at 2000 feet AGL
overcast cloud deck at 3300 feet AGL
Weather: BR  (mist)

METAR text: ZHHH 231700Z 04001MPS 2000 -RA BR SCT010 OVC026 07/06 Q1026 NOSIG
Conditions at: ZHHH (WUHAN/NANHU , CN) observed 1700 UTC 23 January 2020
Temperature: 7.0°C (45°F)
Dewpoint: 6.0°C (43°F) [RH = 93%]
Pressure (altimeter): 30.30 inches Hg (1026.0 mb)
Winds: from the NE (40 degrees) at 2 MPH (2 knots; 1.0 m/s)
Visibility: 1.24 miles (2.00 km)
Ceiling: 2600 feet AGL
Clouds: scattered clouds at 1000 feet AGL
overcast cloud deck at 2600 feet AGL
Weather: -RA BR  (light rain, mist)

METAR text: ZHHH 231600Z VRB01MPS 2500 -RA BR SCT010 OVC026 07/07 Q1026 BECMG TL1750 3000
Conditions at: ZHHH (WUHAN/NANHU , CN) observed 1600 UTC 23 January 2020
Temperature: 7.0°C (45°F)
Dewpoint: 7.0°C (45°F) [RH = 100%]
Pressure (altimeter): 30.30 inches Hg (1026.0 mb)
Winds: variable direction winds at 2 MPH (2 knots; 1.0 m/s)
Visibility: 1.55 miles (2.49 km)
Ceiling: 2600 feet AGL
Clouds: scattered clouds at 1000 feet AGL
overcast cloud deck at 2600 feet AGL
Weather: -RA BR  (light rain, mist)

METAR text: ZHHH 231500Z 01002MPS 330V040 3500 -RA BR SCT020 OVC033 07/07 Q1026 NOSIG
Conditions at: ZHHH (WUHAN/NANHU , CN) observed 1500 UTC 23 January 2020
Temperature: 7.0°C (45°F)
Dewpoint: 7.0°C (45°F) [RH = 100%]
Pressure (altimeter): 30.30 inches Hg (1026.0 mb)
Winds: from the N (10 degrees) at 5 MPH (4 knots; 2.1 m/s)
Visibility: 2.17 miles (3.49 km)
Ceiling: 3300 feet AGL
Clouds: scattered clouds at 2000 feet AGL
overcast cloud deck at 3300 feet AGL
Weather: -RA BR  (light rain, mist)

Forecast for: ZHHH (WUHAN/NANHU , CN)
Text: TAF ZHHH 242111Z 2500/2524 03005MPS 2000 -RA BR SCT010 OVC030 TX06/2507Z TN01/2522Z
Forecast period: 0000 to 0200 UTC 25 January 2020
Forecast type: FROM: standard forecast or significant change
Winds: from the NNE (30 degrees) at 12 MPH (10 knots; 5.1 m/s)
Visibility: 1.24 miles (2.00 km)
Ceiling: 3000 feet AGL
Clouds: scattered clouds at 1000 feet AGL
overcast cloud deck at 3000 feet AGL
Weather: -RA BR  (light rain, mist)
Text: BECMG 2502/2503 3000
Forecast period: 0200 UTC 25 January 2020 to 0000 UTC 26 January 2020
Forecast type: BECOMING: Conditions expected to become as follows by 0300 UTC 25 January 2020
Winds: from the NNE (30 degrees) at 12 MPH (10 knots; 5.1 m/s)
Visibility: 1.86 miles (2.99 km)
Ceiling: 3000 feet AGL
Clouds: scattered clouds at 1000 feet AGL
overcast cloud deck at 3000 feet AGL
Weather: -RA BR  (light rain, mist)